Time;durP1;ratioP1;P1;durP2;ratioP2;P2;SDS_P1;SDS_P2;PMS_P1;PMS_P2;Temp;Humidity;BMP_temperature;BMP_pressure;BME280_temperature;BME280_humidity;BME280_pressure;Samples;Min_cycle;Max_cycle;Signal;HPM_P1;HPM_P2
2023/05/20 00:01:02;;;;;;;4.63;3.22;;;;;;;20.56;67.05;100636.97;5072796;28;20532;-61
2023/05/20 00:03:30;;;;;;;4.60;2.90;;;;;;;20.56;67.03;100636.13;5072951;28;20055;-62
2023/05/20 00:06:02;;;;;;;4.38;3.10;;;;;;;20.55;67.00;100634.38;5071630;28;20056;-61
2023/05/20 00:08:30;;;;;;;4.85;2.88;;;;;;;20.54;66.79;100630.81;5072794;28;20048;-62
2023/05/20 00:10:58;;;;;;;4.07;3.13;;;;;;;20.53;66.77;100639.94;5072823;28;20496;-61
2023/05/20 00:13:29;;;;;;;4.15;2.97;;;;;;;20.53;66.93;100631.81;5072284;28;20049;-62
2023/05/20 00:15:59;;;;;;;4.17;2.97;;;;;;;20.52;67.04;100630.13;5072351;28;20155;-61
2023/05/20 00:18:28;;;;;;;4.28;2.90;;;;;;;20.51;66.88;100617.56;5072457;28;20445;-61
2023/05/20 00:20:59;;;;;;;4.30;3.10;;;;;;;20.50;67.00;100618.56;5072613;28;20132;-62
2023/05/20 00:23:27;;;;;;;4.72;3.38;;;;;;;20.49;67.06;100619.59;5072502;28;20476;-62
2023/05/20 00:25:56;;;;;;;4.50;3.20;;;;;;;20.48;66.73;100601.63;5072402;28;20094;-62
2023/05/20 00:28:29;;;;;;;4.18;3.00;;;;;;;20.48;67.10;100606.19;5072246;28;20049;-62
2023/05/20 00:31:01;;;;;;;3.83;2.70;;;;;;;20.47;66.91;100610.75;5072396;28;20051;-61
2023/05/20 00:33:35;;;;;;;4.80;3.30;;;;;;;20.45;66.84;100607.31;5072120;28;20534;-62
2023/05/20 00:36:03;;;;;;;4.40;3.17;;;;;;;20.45;66.77;100612.72;5072305;28;20138;-61
2023/05/20 00:38:34;;;;;;;4.20;2.90;;;;;;;20.43;66.80;100612.03;5071969;28;20053;-62
2023/05/20 00:41:02;;;;;;;4.07;2.88;;;;;;;20.43;66.78;100612.03;5104099;28;20122;-61
2023/05/20 00:43:31;;;;;;;5.15;3.08;;;;;;;20.42;66.67;100609.44;5072150;28;20051;-61
2023/05/20 00:46:00;;;;;;;3.95;2.80;;;;;;;20.42;66.67;100613.00;5071898;28;20057;-61
2023/05/20 00:48:39;;;;;;;4.60;3.22;;;;;;;20.40;66.61;100615.00;5071927;28;20051;-61
2023/05/20 00:51:08;;;;;;;4.22;2.88;;;;;;;20.39;67.00;100613.31;5071676;28;20048;-61
2023/05/20 00:53:37;;;;;;;3.80;2.90;;;;;;;20.39;66.68;100612.44;5071667;28;20653;-61
2023/05/20 00:56:06;;;;;;;4.30;3.05;;;;;;;20.38;67.07;100614.31;5071853;28;20139;-62
2023/05/20 00:58:36;;;;;;;4.18;3.10;;;;;;;20.37;66.84;100612.59;5071696;28;20147;-62
2023/05/20 01:01:06;;;;;;;4.10;2.90;;;;;;;20.37;66.78;100612.59;5071788;28;20135;-61
2023/05/20 01:03:35;;;;;;;4.15;3.10;;;;;;;20.35;66.81;100611.88;5071633;28;20077;-62
2023/05/20 01:06:04;;;;;;;4.07;2.80;;;;;;;20.35;66.90;100617.28;5071534;28;20048;-61
2023/05/20 01:08:36;;;;;;;4.47;3.08;;;;;;;20.34;66.86;100615.59;5071597;28;20045;-61
2023/05/20 01:11:11;;;;;;;3.92;2.92;;;;;;;20.33;66.75;100619.28;5071713;28;20522;-61
2023/05/20 01:13:45;;;;;;;4.28;3.08;;;;;;;20.32;66.88;100617.59;5071515;28;20554;-62
2023/05/20 01:16:17;;;;;;;4.18;2.90;;;;;;;20.31;66.99;100613.19;5071452;28;20074;-61
2023/05/20 01:18:48;;;;;;;4.63;2.80;;;;;;;20.30;66.77;100615.03;5071328;28;20086;-62
2023/05/20 01:21:18;;;;;;;4.07;2.72;;;;;;;20.30;66.86;100617.75;5071539;28;20053;-61
2023/05/20 01:23:47;;;;;;;5.05;3.25;;;;;;;20.29;67.07;100623.31;5071404;28;20581;-61
2023/05/20 01:26:20;;;;;;;5.07;3.22;;;;;;;20.27;66.85;100617.19;5071574;28;20139;-61
2023/05/20 01:28:49;;;;;;;5.07;3.05;;;;;;;20.27;66.78;100631.59;5071290;28;20070;-62
2023/05/20 01:31:21;;;;;;;5.70;2.95;;;;;;;20.27;67.08;100619.91;5071469;28;20099;-62
2023/05/20 01:33:56;;;;;;;4.10;2.85;;;;;;;20.26;66.91;100623.56;5071349;28;20051;-61
2023/05/20 01:36:26;;;;;;;4.15;2.88;;;;;;;20.26;66.76;100626.28;5071367;28;20044;-62
2023/05/20 01:38:57;;;;;;;4.28;3.10;;;;;;;20.24;66.65;100626.44;5071199;28;20079;-62
2023/05/20 01:41:27;;;;;;;3.50;2.63;;;;;;;20.23;66.97;100632.84;5071353;28;20477;-61
2023/05/20 01:43:55;;;;;;;4.40;2.85;;;;;;;20.23;67.13;100634.72;5071481;28;20048;-62
2023/05/20 01:46:24;;;;;;;4.00;2.80;;;;;;;20.21;66.80;100632.16;5071193;28;20041;-61
2023/05/20 01:48:56;;;;;;;4.15;3.10;;;;;;;20.21;66.81;100640.28;5071279;28;20044;-61
2023/05/20 01:51:24;;;;;;;4.50;3.08;;;;;;;20.20;66.63;100635.00;5071173;28;20048;-61
2023/05/20 01:54:01;;;;;;;3.60;2.90;;;;;;;20.20;66.89;100643.13;5072499;28;20079;-61
2023/05/20 01:56:31;;;;;;;3.90;2.80;;;;;;;20.19;66.71;100633.31;5075195;28;20513;-61
2023/05/20 01:58:59;;;;;;;3.97;2.92;;;;;;;20.18;66.76;100637.88;5075173;28;20051;-61
2023/05/20 02:01:27;;;;;;;4.95;3.03;;;;;;;20.17;66.91;100630.75;5075015;28;20455;-62
2023/05/20 02:03:55;;;;;;;5.53;3.30;;;;;;;20.16;66.89;100631.72;5075130;28;20053;-61
2023/05/20 02:06:26;;;;;;;4.53;2.88;;;;;;;20.16;66.67;100639.00;5074858;28;20048;-61
2023/05/20 02:08:56;;;;;;;4.18;2.95;;;;;;;20.15;66.76;100634.59;5074944;28;20090;-61
2023/05/20 02:11:27;;;;;;;4.53;3.17;;;;;;;20.14;66.92;100641.00;5074890;28;20135;-61
2023/05/20 02:13:57;;;;;;;4.30;2.90;;;;;;;20.14;66.99;100635.59;5074884;28;20474;-61
2023/05/20 02:16:26;;;;;;;4.35;2.85;;;;;;;20.13;66.70;100636.59;5074889;28;20045;-62
2023/05/20 02:18:58;;;;;;;3.63;2.65;;;;;;;20.12;66.63;100632.16;5074761;28;20044;-61
2023/05/20 02:21:26;;;;;;;3.95;2.75;;;;;;;20.11;66.72;100634.03;5074537;28;20053;-61
2023/05/20 02:23:55;;;;;;;4.20;2.95;;;;;;;20.10;66.68;100634.19;5074745;28;20049;-62
2023/05/20 02:26:24;;;;;;;4.03;2.85;;;;;;;20.10;66.83;100639.59;5074581;28;20045;-62
2023/05/20 02:28:52;;;;;;;4.32;2.88;;;;;;;20.08;67.09;100642.44;5074648;28;20106;-61
2023/05/20 02:31:20;;;;;;;4.43;3.20;;;;;;;20.08;67.02;100647.00;5074521;28;20056;-61
2023/05/20 02:33:49;;;;;;;4.47;3.00;;;;;;;20.08;67.06;100641.59;5074199;28;20560;-62
2023/05/20 02:36:17;;;;;;;4.32;2.90;;;;;;;20.07;66.69;100640.72;5074567;28;20464;-61
2023/05/20 02:38:45;;;;;;;4.20;2.72;;;;;;;20.05;67.05;100642.72;5074144;28;20382;-62
2023/05/20 02:41:15;;;;;;;4.97;2.92;;;;;;;20.05;66.81;100641.88;5074252;28;20472;-62
2023/05/20 02:43:44;;;;;;;3.80;2.83;;;;;;;20.05;67.01;100644.56;5074165;28;20052;-62
2023/05/20 02:46:13;;;;;;;4.22;3.00;;;;;;;20.04;66.75;100648.28;5073860;28;20060;-61
2023/05/20 02:48:41;;;;;;;3.85;2.83;;;;;;;20.02;66.88;100643.88;5074104;28;20098;-61
2023/05/20 02:51:10;;;;;;;4.38;2.92;;;;;;;20.02;66.82;100640.31;5073901;28;20076;-62
2023/05/20 02:53:41;;;;;;;4.10;2.90;;;;;;;20.01;66.89;100644.00;5074061;28;20060;-62
2023/05/20 02:56:09;;;;;;;3.95;3.05;;;;;;;20.00;66.73;100642.31;5073716;28;20572;-62
2023/05/20 02:58:40;;;;;;;3.63;2.70;;;;;;;19.99;66.78;100644.16;5073862;28;20132;-61
2023/05/20 03:01:08;;;;;;;3.90;2.85;;;;;;;19.98;66.72;100642.44;5073692;28;20186;-62
2023/05/20 03:03:37;;;;;;;4.28;3.10;;;;;;;19.97;66.56;100643.44;5073859;28;20060;-63
2023/05/20 03:06:06;;;;;;;3.80;2.78;;;;;;;19.98;66.86;100650.56;5073674;28;20052;-62
2023/05/20 03:08:35;;;;;;;3.85;2.78;;;;;;;19.97;66.92;100651.53;5073577;28;20048;-62
2023/05/20 03:11:03;;;;;;;3.40;2.55;;;;;;;19.96;66.71;100649.00;5073661;28;20055;-62
2023/05/20 03:13:34;;;;;;;4.97;3.00;;;;;;;19.96;66.83;100654.41;5073216;28;20052;-62
2023/05/20 03:16:05;;;;;;;4.00;2.90;;;;;;;19.95;66.87;100648.13;5073383;28;20056;-62
2023/05/20 03:18:34;;;;;;;4.68;2.90;;;;;;;19.94;66.90;100651.84;5073596;28;20405;-62
2023/05/20 03:21:02;;;;;;;4.30;2.92;;;;;;;19.94;66.66;100651.00;5073439;28;20049;-62
2023/05/20 03:23:31;;;;;;;4.35;2.90;;;;;;;19.92;66.83;100651.13;5073437;28;20060;-62
2023/05/20 03:25:59;;;;;;;4.22;3.03;;;;;;;19.92;66.62;100656.56;5073305;28;20070;-62
2023/05/20 03:28:27;;;;;;;4.47;2.70;;;;;;;19.91;66.91;100657.56;5073499;28;20045;-62
2023/05/20 03:30:55;;;;;;;4.07;2.85;;;;;;;19.91;66.70;100664.81;5073419;28;20056;-62
2023/05/20 03:33:26;;;;;;;4.47;3.28;;;;;;;19.91;66.56;100664.81;5073382;28;20055;-62
2023/05/20 03:35:56;;;;;;;3.90;2.80;;;;;;;19.89;66.67;100664.97;5073234;28;20122;-61
2023/05/20 03:38:24;;;;;;;4.88;2.80;;;;;;;19.89;66.56;100659.56;5073338;28;20048;-62
2023/05/20 03:40:53;;;;;;;3.35;2.70;;;;;;;19.90;66.87;100660.41;5072947;28;20055;-62
2023/05/20 03:43:27;;;;;;;3.92;2.70;;;;;;;19.88;66.90;100663.25;5073473;28;20044;-63
2023/05/20 03:45:55;;;;;;;5.53;3.50;;;;;;;19.87;66.74;100661.53;5073040;28;20049;-62
2023/05/20 03:48:29;;;;;;;4.25;2.85;;;;;;;19.87;66.45;100666.09;5073105;28;20056;-62
2023/05/20 03:51:00;;;;;;;4.03;2.80;;;;;;;19.86;66.55;100664.38;5072986;28;20417;-62
2023/05/20 03:53:29;;;;;;;4.55;2.80;;;;;;;19.86;66.66;100670.63;5072885;28;20052;-62
2023/05/20 03:56:00;;;;;;;4.15;2.90;;;;;;;19.86;66.88;100658.97;5073071;28;20052;-62
2023/05/20 03:58:30;;;;;;;5.07;3.00;;;;;;;19.85;66.77;100674.34;5072798;28;20044;-62
2023/05/20 04:00:58;;;;;;;4.80;3.03;;;;;;;19.84;66.60;100678.06;5072141;28;20045;-62
2023/05/20 04:03:27;;;;;;;4.22;2.80;;;;;;;19.83;66.80;100670.94;5072738;28;20131;-60
2023/05/20 04:05:57;;;;;;;3.85;2.70;;;;;;;19.83;66.90;100670.94;5072745;28;20045;-63
2023/05/20 04:08:25;;;;;;;4.25;2.95;;;;;;;19.83;66.91;100681.75;5072753;28;20053;-62
2023/05/20 04:10:56;;;;;;;3.78;2.72;;;;;;;19.83;66.61;100683.63;5072662;28;20048;-63
2023/05/20 04:13:25;;;;;;;3.67;2.72;;;;;;;19.83;66.83;100687.19;5071144;28;20140;-63
2023/05/20 04:15:54;;;;;;;3.88;2.83;;;;;;;19.82;66.78;100688.19;5072120;28;20057;-63
2023/05/20 04:18:22;;;;;;;3.78;2.70;;;;;;;19.82;66.83;100690.03;5072332;28;20056;-62
2023/05/20 04:20:54;;;;;;;4.00;2.75;;;;;;;19.82;66.55;100690.88;5072508;28;20133;-63
2023/05/20 04:23:24;;;;;;;3.67;2.70;;;;;;;19.81;66.87;100691.88;5072482;28;20041;-62
2023/05/20 04:25:52;;;;;;;3.85;2.78;;;;;;;19.82;66.64;100703.56;5072393;28;20090;-62
2023/05/20 04:28:22;;;;;;;4.97;3.08;;;;;;;19.81;66.81;100694.59;5072131;28;20156;-62
2023/05/20 04:30:58;;;;;;;4.25;2.80;;;;;;;19.81;66.91;100696.44;5072105;28;20495;-62
2023/05/20 04:33:27;;;;;;;3.60;2.60;;;;;;;19.80;66.73;100703.72;5072365;28;20051;-63
2023/05/20 04:35:57;;;;;;;4.05;2.90;;;;;;;19.80;66.51;100706.41;5072207;28;20105;-62
2023/05/20 04:38:31;;;;;;;;;;;;;;;19.79;66.90;100702.00;5072529;28;20358;-62
2023/05/20 04:41:02;;;;;;;4.43;2.97;;;;;;;19.79;66.55;100707.41;5071845;28;20374;-61
2023/05/20 04:43:30;;;;;;;3.67;2.67;;;;;;;19.80;66.92;100702.84;5071913;28;20621;-62
2023/05/20 04:46:00;;;;;;;4.10;2.75;;;;;;;19.79;66.67;100706.56;5072083;28;20048;-62
2023/05/20 04:48:29;;;;;;;4.07;2.90;;;;;;;19.79;66.68;100695.75;5072153;28;20084;-62
2023/05/20 04:50:58;;;;;;;4.45;3.28;;;;;;;19.78;66.77;100700.25;5071861;28;20070;-62
2023/05/20 04:53:26;;;;;;;4.72;3.13;;;;;;;19.77;66.86;100695.84;5071935;28;20083;-63
2023/05/20 04:55:58;;;;;;;4.30;2.90;;;;;;;19.78;66.55;100694.84;5071681;28;20412;-62
2023/05/20 04:58:28;;;;;;;3.80;2.80;;;;;;;19.77;66.79;100692.28;5072031;28;20041;-62
2023/05/20 05:00:56;;;;;;;3.80;2.58;;;;;;;19.78;66.82;100694.00;5071782;28;20051;-62
2023/05/20 05:03:24;;;;;;;3.83;2.60;;;;;;;19.78;66.87;100700.25;5071775;28;20051;-61
2023/05/20 05:05:56;;;;;;;3.80;2.80;;;;;;;19.77;66.96;100703.97;5071504;28;20045;-61
2023/05/20 05:08:24;;;;;;;3.90;2.60;;;;;;;19.78;66.63;100704.81;5070142;28;20044;-61
2023/05/20 05:10:52;;;;;;;4.38;2.80;;;;;;;19.76;66.63;100702.25;5071938;28;20463;-61
2023/05/20 05:13:22;;;;;;;3.63;2.80;;;;;;;19.76;66.98;100699.56;5071135;28;20546;-60
2023/05/20 05:15:58;;;;;;;3.70;2.67;;;;;;;19.77;66.82;100703.97;5071426;28;20325;-61
2023/05/20 05:18:26;;;;;;;3.65;2.72;;;;;;;19.76;66.76;100691.44;5071511;28;20052;-61
2023/05/20 05:21:02;;;;;;;3.72;2.80;;;;;;;19.76;66.50;100702.25;5071273;28;20049;-61
2023/05/20 05:23:31;;;;;;;4.05;2.70;;;;;;;19.76;66.94;100699.56;5071324;28;20661;-61
2023/05/20 05:25:59;;;;;;;4.65;2.80;;;;;;;19.76;66.95;100696.00;5071153;28;20045;-61
2023/05/20 05:28:30;;;;;;;4.35;2.80;;;;;;;19.76;66.98;100702.25;5070522;28;20094;-61
2023/05/20 05:30:58;;;;;;;4.13;2.92;;;;;;;19.76;66.53;100702.25;5071319;28;20071;-61
2023/05/20 05:33:26;;;;;;;5.00;3.10;;;;;;;19.76;66.93;100702.25;5071172;28;20045;-62
2023/05/20 05:35:57;;;;;;;4.57;3.17;;;;;;;19.76;66.84;100690.59;5071067;28;20508;-62
2023/05/20 05:38:29;;;;;;;3.97;2.53;;;;;;;19.76;66.56;100701.41;5071363;28;20412;-61
2023/05/20 05:40:57;;;;;;;4.55;3.03;;;;;;;19.76;66.69;100702.25;5071400;28;20075;-62
2023/05/20 05:43:25;;;;;;;3.78;2.70;;;;;;;19.76;66.95;100701.41;5071052;28;20481;-61
2023/05/20 05:45:54;;;;;;;4.60;2.90;;;;;;;19.76;66.90;100701.41;5071045;28;20045;-61
2023/05/20 05:48:23;;;;;;;3.40;2.70;;;;;;;19.75;66.72;100711.38;5070998;28;20048;-62
2023/05/20 05:50:51;;;;;;;3.90;2.67;;;;;;;19.76;66.86;100713.09;5071071;28;20778;-61
2023/05/20 05:53:19;;;;;;;4.47;2.95;;;;;;;19.76;66.90;100706.81;5071157;28;20406;-61
2023/05/20 05:55:47;;;;;;;4.00;2.60;;;;;;;19.77;66.80;100713.94;5070999;28;20063;-61
2023/05/20 05:58:16;;;;;;;4.18;2.92;;;;;;;19.76;67.00;100702.25;5071063;28;20036;-61
2023/05/20 06:00:49;;;;;;;4.68;2.92;;;;;;;19.76;66.98;100707.69;5071589;28;20047;-61
2023/05/20 06:03:23;;;;;;;5.30;3.20;;;;;;;19.77;66.70;100711.22;5071262;28;20076;-61
2023/05/20 06:05:55;;;;;;;4.50;3.00;;;;;;;19.77;66.79;100706.69;5071370;28;20413;-61
2023/05/20 06:08:23;;;;;;;4.03;2.90;;;;;;;19.77;66.76;100708.53;5070801;28;20128;-61
2023/05/20 06:10:51;;;;;;;4.28;2.97;;;;;;;19.77;67.02;100706.69;5070858;28;20058;-60
2023/05/20 06:13:20;;;;;;;3.83;3.05;;;;;;;19.78;66.74;100710.22;5070474;28;20091;-60
2023/05/20 06:15:54;;;;;;;4.30;2.67;;;;;;;19.78;67.05;100707.53;5071073;28;20072;-62
2023/05/20 06:18:23;;;;;;;4.25;3.00;;;;;;;19.78;66.89;100705.69;5070845;28;20488;-62
2023/05/20 06:20:58;;;;;;;4.43;3.20;;;;;;;19.78;67.06;100711.09;5070940;28;20503;-61
2023/05/20 06:23:29;;;;;;;4.50;3.20;;;;;;;19.78;66.87;100708.38;5070697;28;20067;-61
2023/05/20 06:25:59;;;;;;;5.20;3.30;;;;;;;19.79;67.17;100706.56;5070611;28;20049;-61
2023/05/20 06:28:27;;;;;;;4.05;3.08;;;;;;;19.79;67.10;100707.41;5069358;28;20049;-61
2023/05/20 06:30:55;;;;;;;4.35;3.00;;;;;;;19.79;67.14;100704.72;5070843;28;20069;-61
2023/05/20 06:33:28;;;;;;;4.00;2.92;;;;;;;19.80;67.25;100706.41;5070614;28;20489;-61
2023/05/20 06:36:00;;;;;;;3.30;2.60;;;;;;;19.81;66.95;100707.28;5069424;28;20045;-62
2023/05/20 06:38:28;;;;;;;4.30;3.03;;;;;;;19.79;66.97;100702.00;5070588;28;20053;-61
2023/05/20 06:40:57;;;;;;;4.43;3.40;;;;;;;19.80;66.91;100703.72;5073808;28;20118;-61
2023/05/20 06:43:25;;;;;;;4.00;2.97;;;;;;;19.82;67.16;100711.69;5074400;28;20048;-61
2023/05/20 06:45:53;;;;;;;4.63;3.10;;;;;;;19.82;67.21;100704.41;5074318;28;20052;-61
2023/05/20 06:48:21;;;;;;;4.65;2.90;;;;;;;19.82;67.31;100709.84;5074191;28;20083;-61
2023/05/20 06:50:51;;;;;;;5.00;3.30;;;;;;;19.82;66.95;100704.41;5074053;28;20044;-61
2023/05/20 06:53:20;;;;;;;4.20;3.03;;;;;;;19.84;67.31;100698.84;5073091;28;20049;-61
2023/05/20 06:55:49;;;;;;;4.18;3.10;;;;;;;19.84;67.07;100699.72;5074217;28;20112;-62
2023/05/20 06:58:17;;;;;;;4.28;3.20;;;;;;;19.85;67.09;100705.97;5074287;28;20114;-63
2023/05/20 07:00:47;;;;;;;4.40;3.20;;;;;;;19.85;67.41;100700.56;5072769;28;20098;-62
2023/05/20 07:03:15;;;;;;;4.20;3.30;;;;;;;19.85;67.41;100696.00;5073055;28;20131;-63
2023/05/20 07:05:44;;;;;;;4.85;3.28;;;;;;;19.86;67.34;100696.84;5073695;28;20044;-62
2023/05/20 07:08:13;;;;;;;4.40;2.90;;;;;;;19.86;67.03;100700.41;5073495;28;20040;-61
2023/05/20 07:10:45;;;;;;;3.95;2.97;;;;;;;19.87;67.26;100699.41;5073613;28;20123;-61
2023/05/20 07:13:15;;;;;;;4.57;3.03;;;;;;;19.87;67.21;100704.84;5073216;28;20463;-61
2023/05/20 07:15:46;;;;;;;4.88;3.10;;;;;;;19.88;67.11;100693.03;5073341;28;20045;-62
2023/05/20 07:18:15;;;;;;;4.47;3.17;;;;;;;19.88;67.48;100690.34;5073129;28;20048;-62
2023/05/20 07:20:43;;;;;;;4.13;3.00;;;;;;;19.89;67.20;100683.91;5072888;28;20493;-62
2023/05/20 07:23:13;;;;;;;4.07;3.10;;;;;;;19.89;67.25;100683.06;5073138;28;20550;-62
2023/05/20 07:25:42;;;;;;;4.50;3.08;;;;;;;19.89;67.32;100689.34;5073056;28;20044;-62
2023/05/20 07:28:11;;;;;;;4.50;3.35;;;;;;;19.89;67.59;100675.78;5073203;28;20040;-62
2023/05/20 07:30:45;;;;;;;4.57;3.05;;;;;;;19.91;67.55;100672.94;5072852;28;20076;-62
2023/05/20 07:33:13;;;;;;;4.47;3.22;;;;;;;19.91;67.22;100673.78;5071480;28;20079;-61
2023/05/20 07:35:44;;;;;;;4.40;3.15;;;;;;;19.93;67.14;100670.94;5072810;28;20102;-61
2023/05/20 07:38:17;;;;;;;5.30;3.28;;;;;;;19.94;67.52;100672.66;5072836;28;20078;-61
2023/05/20 07:40:45;;;;;;;4.55;2.95;;;;;;;19.94;67.49;100669.94;5096397;28;20040;-61
2023/05/20 07:43:14;;;;;;;4.20;3.20;;;;;;;19.94;67.15;100673.50;5072112;28;20111;-61
2023/05/20 07:45:42;;;;;;;4.90;3.33;;;;;;;19.95;67.38;100680.63;5069398;28;20129;-61
2023/05/20 07:48:11;;;;;;;4.95;3.58;;;;;;;19.95;67.33;100683.31;5071574;28;20563;-61
2023/05/20 07:50:40;;;;;;;4.88;3.45;;;;;;;19.96;67.34;100676.91;5071573;28;20152;-62
2023/05/20 07:53:08;;;;;;;4.50;3.00;;;;;;;19.97;67.61;100678.63;5072595;28;20087;-62
2023/05/20 07:55:38;;;;;;;3.85;2.78;;;;;;;19.98;67.29;100680.34;5072175;28;20079;-61
2023/05/20 07:58:06;;;;;;;4.15;2.72;;;;;;;19.99;67.38;100676.66;5072295;28;20041;-62
2023/05/20 08:00:34;;;;;;;5.00;3.00;;;;;;;19.99;67.27;100665.81;5072487;28;20128;-61
2023/05/20 08:03:02;;;;;;;4.40;3.10;;;;;;;20.00;67.28;100670.22;5072165;28;20060;-62
2023/05/20 08:05:31;;;;;;;4.20;3.00;;;;;;;20.01;67.26;100668.38;5073031;28;20087;-61
2023/05/20 08:08:00;;;;;;;4.15;3.13;;;;;;;20.01;67.38;100666.53;5073548;28;20083;-61
2023/05/20 08:10:28;;;;;;;5.47;3.53;;;;;;;20.02;67.68;100670.94;5071969;28;20076;-61
2023/05/20 08:12:58;;;;;;;5.00;3.30;;;;;;;20.05;67.35;100668.94;5072459;28;20437;-61
2023/05/20 08:15:26;;;;;;;4.68;3.33;;;;;;;20.05;67.46;100666.22;5072686;28;20122;-61
2023/05/20 08:17:54;;;;;;;4.25;3.10;;;;;;;20.06;67.71;100670.66;5072136;28;20045;-61
2023/05/20 08:20:25;;;;;;;4.40;3.22;;;;;;;20.07;67.40;100661.53;5072223;28;20440;-61
2023/05/20 08:22:53;;;;;;;3.95;2.90;;;;;;;20.08;67.71;100666.81;5071117;28;20493;-61
2023/05/20 08:25:22;;;;;;;3.70;2.88;;;;;;;20.09;67.33;100662.25;5070646;28;20051;-61
2023/05/20 08:27:51;;;;;;;4.45;3.30;;;;;;;20.10;67.49;100661.25;5071514;28;20041;-61
2023/05/20 08:30:20;;;;;;;4.20;3.15;;;;;;;20.11;67.37;100657.53;5071983;28;20094;-61
2023/05/20 08:32:52;;;;;;;4.78;3.28;;;;;;;20.11;67.79;100654.84;5071593;28;20041;-61
2023/05/20 08:35:20;;;;;;;4.20;2.92;;;;;;;20.13;67.32;100650.13;5071897;28;20045;-61
2023/05/20 08:37:54;;;;;;;4.20;3.20;;;;;;;20.15;67.54;100650.81;5071822;28;20469;-60
2023/05/20 08:40:23;;;;;;;4.13;2.88;;;;;;;20.15;67.81;100648.13;5071671;28;20052;-61
2023/05/20 08:42:52;;;;;;;4.97;3.40;;;;;;;20.16;67.66;100649.81;5071384;28;20618;-62
2023/05/20 08:45:25;;;;;;;4.15;3.03;;;;;;;20.17;67.70;100646.13;5071420;28;20100;-61
2023/05/20 08:47:54;;;;;;;4.22;3.28;;;;;;;20.18;67.64;100642.44;5071680;28;20127;-61
2023/05/20 08:50:22;;;;;;;4.80;3.53;;;;;;;20.19;67.75;100638.72;5068621;28;20055;-61
2023/05/20 08:52:51;;;;;;;4.50;2.85;;;;;;;20.20;67.58;100637.72;5071175;28;20489;-61
2023/05/20 08:55:32;;;;;;;3.92;3.03;;;;;;;20.22;67.54;100638.44;5071731;28;20048;-61
2023/05/20 08:58:02;;;;;;;4.75;3.40;;;;;;;20.22;67.85;100633.00;5071641;28;20064;-62
2023/05/20 09:00:32;;;;;;;4.47;3.20;;;;;;;20.24;67.89;100639.13;5071637;28;20047;-61
2023/05/20 09:03:00;;;;;;;4.78;3.55;;;;;;;20.25;67.87;100640.84;5071854;28;20040;-62
2023/05/20 09:05:31;;;;;;;4.28;3.35;;;;;;;20.26;67.57;100629.00;5071675;28;20048;-60
2023/05/20 09:08:07;;;;;;;4.35;3.15;;;;;;;20.27;68.10;100625.31;5071634;28;20045;-61
2023/05/20 09:10:36;;;;;;;4.13;3.03;;;;;;;20.29;68.04;100617.91;5070350;28;20516;-63
2023/05/20 09:13:06;;;;;;;4.57;3.47;;;;;;;20.29;67.79;100623.31;5071297;28;20056;-63
2023/05/20 09:15:39;;;;;;;;;;;;;;;20.32;67.90;100627.56;5071948;28;20067;-62
2023/05/20 09:18:10;;;;;;;4.30;3.00;;;;;;;20.32;68.10;100627.56;5071520;28;19920;-62
2023/05/20 09:20:39;;;;;;;5.18;3.70;;;;;;;20.35;69.37;100622.72;5071274;28;20049;-63
2023/05/20 09:23:10;;;;;;;5.90;4.20;;;;;;;20.39;70.15;100618.72;5071037;28;20045;-62
2023/05/20 09:25:38;;;;;;;6.35;4.13;;;;;;;20.48;71.87;100617.03;5070913;28;20061;-63
2023/05/20 09:28:10;;;;;;;6.28;4.50;;;;;;;20.53;71.62;100614.72;5071263;28;20051;-62
2023/05/20 09:30:40;;;;;;;5.95;4.00;;;;;;;20.56;71.72;100614.44;5071221;28;20045;-63
2023/05/20 09:33:12;;;;;;;5.90;4.40;;;;;;;20.57;71.03;100608.00;5071195;28;20041;-66
2023/05/20 09:35:42;;;;;;;5.85;4.05;;;;;;;20.58;70.71;100607.84;5071594;28;20418;-60
2023/05/20 09:38:12;;;;;;;6.60;4.32;;;;;;;20.58;70.49;100602.44;5071451;28;20068;-63
2023/05/20 09:40:45;;;;;;;5.72;4.05;;;;;;;20.59;70.04;100600.59;5071181;28;20268;-62
2023/05/20 09:43:14;;;;;;;6.55;4.05;;;;;;;20.61;69.78;100597.72;5070955;28;20043;-63
2023/05/20 09:45:45;;;;;;;5.80;4.57;;;;;;;20.61;69.79;100595.84;5071022;28;20041;-63
2023/05/20 09:48:14;;;;;;;5.43;3.88;;;;;;;20.62;69.58;100583.16;5070804;28;20143;-65
2023/05/20 09:50:43;;;;;;;6.35;4.18;;;;;;;20.63;69.81;100588.44;5070974;28;20040;-68
2023/05/20 09:53:12;;;;;;;6.32;4.40;;;;;;;20.64;69.57;100583.84;5071101;28;20052;-64
2023/05/20 09:55:42;;;;;;;5.97;4.60;;;;;;;20.65;69.65;100580.16;5071126;28;20052;-64
2023/05/20 09:58:13;;;;;;;7.88;5.50;;;;;;;20.67;69.17;100583.59;5070654;28;20048;-63
2023/05/20 10:00:45;;;;;;;8.00;5.50;;;;;;;20.67;68.88;100573.59;5069895;28;20475;-66
2023/05/20 10:03:13;;;;;;;9.25;6.07;;;;;;;20.71;67.66;100572.28;5069968;28;20083;-62
2023/05/20 10:06:08;;;;;;;11.20;7.25;;;;;;;20.75;66.49;100570.09;5069597;28;20049;-58
2023/05/20 10:09:02;;;;;;;58.72;18.63;;;;;;;20.84;65.84;100561.06;5065928;28;20448;-61
2023/05/20 10:11:37;;;;;;;81.97;26.23;;;;;;;20.87;66.28;100558.09;5056909;28;20056;-61
2023/05/20 10:14:22;;;;;;;110.88;33.08;;;;;;;20.88;66.10;100548.94;5069961;28;20119;-60
2023/05/20 10:16:57;;;;;;;97.07;28.98;;;;;;;20.90;66.51;100552.34;5074296;28;20072;-60
2023/05/20 10:19:30;;;;;;;99.47;28.77;;;;;;;20.90;66.69;100551.50;5074266;28;20051;-60
2023/05/20 10:22:02;;;;;;;75.50;25.40;;;;;;;20.90;66.32;100552.34;5073861;28;20098;-60
2023/05/20 10:24:34;;;;;;;74.15;23.67;;;;;;;20.91;66.10;100554.06;5072942;28;20055;-60
2023/05/20 10:27:05;;;;;;;69.95;24.00;;;;;;;20.93;65.80;100552.03;5074720;28;20076;-61
2023/05/20 10:29:45;;;;;;;68.60;22.52;;;;;;;20.95;65.80;100550.06;5072638;28;20055;-60
2023/05/20 10:32:27;;;;;;;73.15;23.30;;;;;;;20.97;65.76;100539.06;5073530;28;20045;-61
2023/05/20 10:35:00;;;;;;;70.25;24.85;;;;;;;20.99;65.96;100534.31;5073545;28;20041;-61
2023/05/20 10:37:33;;;;;;;52.70;21.25;;;;;;;21.01;65.72;100537.72;5074156;28;20080;-61
2023/05/20 10:40:07;;;;;;;64.55;21.83;;;;;;;21.03;65.80;100538.41;5073793;28;20083;-61
2023/05/20 10:42:40;;;;;;;59.78;21.35;;;;;;;21.05;65.73;100533.72;5073369;28;20419;-62
2023/05/20 10:45:09;;;;;;;51.83;20.02;;;;;;;21.08;65.49;100522.56;5071547;28;20056;-61
2023/05/20 10:47:54;;;;;;;54.30;19.35;;;;;;;21.11;64.83;100525.81;5071222;28;20087;-64
2023/05/20 10:50:34;;;;;;;43.33;16.85;;;;;;;21.15;65.07;100526.38;5073714;28;20119;-60
2023/05/20 10:53:05;;;;;;;41.75;16.75;;;;;;;21.19;64.10;100535.03;5073091;28;20043;-59
2023/05/20 10:55:48;;;;;;;38.83;16.02;;;;;;;21.22;63.17;100519.28;5070657;28;20135;-61
2023/05/20 10:58:16;;;;;;;30.58;13.57;;;;;;;21.26;62.87;100528.00;5073168;28;20470;-58
2023/05/20 11:00:45;;;;;;;37.58;15.45;;;;;;;21.30;62.65;100524.00;5072393;28;20044;-59
2023/05/20 11:03:19;;;;;;;33.75;15.60;;;;;;;21.33;62.42;100512.84;5073327;28;20485;-62
2023/05/20 11:05:47;;;;;;;26.48;12.68;;;;;;;21.38;62.61;100518.66;5073564;28;20080;-60
2023/05/20 11:08:16;;;;;;;28.52;13.95;;;;;;;21.41;62.18;100512.91;5072012;28;20412;-60
2023/05/20 11:10:57;;;;;;;31.15;14.07;;;;;;;21.45;62.53;100517.03;5053562;28;20128;-61
2023/05/20 11:13:26;;;;;;;26.65;13.82;;;;;;;21.49;62.74;100510.25;5052869;28;20508;-64
2023/05/20 11:15:55;;;;;;;26.08;12.23;;;;;;;21.52;62.39;100517.22;5053809;28;20132;-62
2023/05/20 11:18:30;;;;;;;21.80;11.70;;;;;;;21.56;61.63;100510.50;5068183;28;20048;-61
2023/05/20 11:21:02;;;;;;;22.40;11.38;;;;;;;21.58;61.70;100503.91;5069331;28;20139;-62
2023/05/20 11:23:33;;;;;;;21.23;11.27;;;;;;;21.62;61.14;100512.59;5073428;28;20048;-62
2023/05/20 11:26:05;;;;;;;24.48;11.55;;;;;;;21.66;60.99;100501.25;5071989;28;20049;-61
2023/05/20 11:28:35;;;;;;;21.98;11.48;;;;;;;21.70;61.01;100505.34;5073010;28;20489;-60
2023/05/20 11:31:04;;;;;;;21.42;10.80;;;;;;;21.74;60.91;100521.34;5073427;28;20041;-63
2023/05/20 11:33:34;;;;;;;18.85;11.00;;;;;;;21.78;60.92;100509.97;5073800;28;20143;-64
2023/05/20 11:36:03;;;;;;;17.40;10.13;;;;;;;21.82;60.90;100499.69;5073631;28;20098;-62
2023/05/20 11:38:41;;;;;;;18.58;9.93;;;;;;;21.86;60.82;100501.06;5073439;28;20413;-62